sensor_id;sensor_type;location;lat;lon;timestamp;P1;durP1;ratioP1;P2;durP2;ratioP2
80842;SDS011;70255;53.686;10.778;2023-06-22T00:00:45;2.70;;;1.50;;
80842;SDS011;70255;53.686;10.778;2023-06-22T00:03:10;3.83;;;2.13;;
80842;SDS011;70255;53.686;10.778;2023-06-22T00:05:35;3.20;;;1.63;;
80842;SDS011;70255;53.686;10.778;2023-06-22T00:08:04;4.87;;;2.20;;
80842;SDS011;70255;53.686;10.778;2023-06-22T00:10:32;3.40;;;1.90;;
80842;SDS011;70255;53.686;10.778;2023-06-22T00:12:57;3.15;;;1.50;;
80842;SDS011;70255;53.686;10.778;2023-06-22T00:15:22;4.22;;;2.10;;
80842;SDS011;70255;53.686;10.778;2023-06-22T00:17:48;3.83;;;1.77;;
80842;SDS011;70255;53.686;10.778;2023-06-22T00:20:13;3.95;;;1.90;;
80842;SDS011;70255;53.686;10.778;2023-06-22T00:22:39;2.90;;;1.50;;
80842;SDS011;70255;53.686;10.778;2023-06-22T00:25:06;3.37;;;1.40;;
80842;SDS011;70255;53.686;10.778;2023-06-22T00:27:31;3.88;;;1.73;;
80842;SDS011;70255;53.686;10.778;2023-06-22T00:29:56;3.50;;;2.03;;
80842;SDS011;70255;53.686;10.778;2023-06-22T00:32:21;3.37;;;1.97;;
80842;SDS011;70255;53.686;10.778;2023-06-22T00:34:47;3.17;;;1.80;;
80842;SDS011;70255;53.686;10.778;2023-06-22T00:37:12;3.95;;;1.70;;
80842;SDS011;70255;53.686;10.778;2023-06-22T00:39:37;3.63;;;1.90;;
80842;SDS011;70255;53.686;10.778;2023-06-22T00:42:02;3.60;;;1.97;;
80842;SDS011;70255;53.686;10.778;2023-06-22T00:44:28;3.00;;;1.83;;
80842;SDS011;70255;53.686;10.778;2023-06-22T00:46:53;4.60;;;1.97;;
80842;SDS011;70255;53.686;10.778;2023-06-22T00:49:18;4.23;;;2.30;;
80842;SDS011;70255;53.686;10.778;2023-06-22T00:51:43;5.13;;;2.47;;
80842;SDS011;70255;53.686;10.778;2023-06-22T00:54:10;4.35;;;2.47;;
80842;SDS011;70255;53.686;10.778;2023-06-22T00:56:38;4.57;;;2.45;;
80842;SDS011;70255;53.686;10.778;2023-06-22T00:59:03;3.97;;;2.00;;
80842;SDS011;70255;53.686;10.778;2023-06-22T01:01:29;3.27;;;1.60;;
80842;SDS011;70255;53.686;10.778;2023-06-22T01:03:54;2.87;;;1.83;;
80842;SDS011;70255;53.686;10.778;2023-06-22T01:06:25;6.15;;;2.22;;
80842;SDS011;70255;53.686;10.778;2023-06-22T01:08:53;5.30;;;2.30;;
80842;SDS011;70255;53.686;10.778;2023-06-22T01:11:37;5.15;;;2.00;;
80842;SDS011;70255;53.686;10.778;2023-06-22T01:14:05;3.05;;;1.58;;
80842;SDS011;70255;53.686;10.778;2023-06-22T01:16:33;8.80;;;2.10;;
80842;SDS011;70255;53.686;10.778;2023-06-22T01:19:00;3.70;;;2.05;;
80842;SDS011;70255;53.686;10.778;2023-06-22T01:21:28;5.18;;;2.50;;
80842;SDS011;70255;53.686;10.778;2023-06-22T01:29:14;4.40;;;2.10;;
80842;SDS011;70255;53.686;10.778;2023-06-22T01:31:40;4.00;;;1.92;;
80842;SDS011;70255;53.686;10.778;2023-06-22T01:34:07;5.60;;;1.90;;
80842;SDS011;70255;53.686;10.778;2023-06-22T01:36:33;3.50;;;2.10;;
80842;SDS011;70255;53.686;10.778;2023-06-22T01:38:58;4.72;;;2.50;;
80842;SDS011;70255;53.686;10.778;2023-06-22T01:41:25;4.22;;;2.10;;
80842;SDS011;70255;53.686;10.778;2023-06-22T01:43:50;3.13;;;1.63;;
80842;SDS011;70255;53.686;10.778;2023-06-22T01:46:16;4.53;;;2.15;;
80842;SDS011;70255;53.686;10.778;2023-06-22T01:48:44;3.83;;;1.95;;
80842;SDS011;70255;53.686;10.778;2023-06-22T01:51:09;3.35;;;1.58;;
80842;SDS011;70255;53.686;10.778;2023-06-22T01:53:34;3.95;;;2.17;;
80842;SDS011;70255;53.686;10.778;2023-06-22T01:56:00;3.97;;;2.20;;
80842;SDS011;70255;53.686;10.778;2023-06-22T01:58:26;3.27;;;2.23;;
80842;SDS011;70255;53.686;10.778;2023-06-22T02:01:13;5.35;;;2.47;;
80842;SDS011;70255;53.686;10.778;2023-06-22T02:03:41;4.55;;;2.30;;
80842;SDS011;70255;53.686;10.778;2023-06-22T02:06:08;3.97;;;2.53;;
80842;SDS011;70255;53.686;10.778;2023-06-22T02:08:40;4.93;;;2.20;;
80842;SDS011;70255;53.686;10.778;2023-06-22T02:11:06;4.53;;;2.38;;
80842;SDS011;70255;53.686;10.778;2023-06-22T02:13:33;3.95;;;2.33;;
80842;SDS011;70255;53.686;10.778;2023-06-22T02:15:58;5.18;;;2.80;;
80842;SDS011;70255;53.686;10.778;2023-06-22T02:18:24;4.88;;;2.47;;
80842;SDS011;70255;53.686;10.778;2023-06-22T02:20:50;4.95;;;2.13;;
80842;SDS011;70255;53.686;10.778;2023-06-22T02:23:15;4.00;;;2.10;;
80842;SDS011;70255;53.686;10.778;2023-06-22T02:25:43;4.80;;;2.60;;
80842;SDS011;70255;53.686;10.778;2023-06-22T02:28:09;4.68;;;2.50;;
80842;SDS011;70255;53.686;10.778;2023-06-22T02:30:34;4.95;;;2.60;;
80842;SDS011;70255;53.686;10.778;2023-06-22T02:33:00;4.97;;;2.53;;
80842;SDS011;70255;53.686;10.778;2023-06-22T02:35:26;5.40;;;2.60;;
80842;SDS011;70255;53.686;10.778;2023-06-22T02:37:51;4.57;;;3.03;;
80842;SDS011;70255;53.686;10.778;2023-06-22T02:40:17;4.20;;;1.98;;
80842;SDS011;70255;53.686;10.778;2023-06-22T02:42:42;4.03;;;2.33;;
80842;SDS011;70255;53.686;10.778;2023-06-22T02:45:07;5.13;;;2.57;;
80842;SDS011;70255;53.686;10.778;2023-06-22T02:47:32;4.38;;;2.10;;
80842;SDS011;70255;53.686;10.778;2023-06-22T02:49:58;3.50;;;1.70;;
80842;SDS011;70255;53.686;10.778;2023-06-22T02:52:23;4.97;;;2.50;;
80842;SDS011;70255;53.686;10.778;2023-06-22T02:54:48;3.63;;;2.00;;
80842;SDS011;70255;53.686;10.778;2023-06-22T02:57:13;5.17;;;2.10;;
80842;SDS011;70255;53.686;10.778;2023-06-22T02:59:39;4.73;;;3.00;;
80842;SDS011;70255;53.686;10.778;2023-06-22T03:02:05;3.53;;;2.10;;
80842;SDS011;70255;53.686;10.778;2023-06-22T03:04:31;7.20;;;2.28;;
80842;SDS011;70255;53.686;10.778;2023-06-22T03:06:56;3.95;;;1.98;;
80842;SDS011;70255;53.686;10.778;2023-06-22T03:09:21;4.63;;;2.00;;
80842;SDS011;70255;53.686;10.778;2023-06-22T03:11:46;5.30;;;2.10;;
80842;SDS011;70255;53.686;10.778;2023-06-22T03:14:12;5.63;;;2.03;;
80842;SDS011;70255;53.686;10.778;2023-06-22T03:16:37;6.43;;;2.67;;
80842;SDS011;70255;53.686;10.778;2023-06-22T03:19:02;4.33;;;2.23;;
80842;SDS011;70255;53.686;10.778;2023-06-22T03:21:28;6.50;;;2.60;;
80842;SDS011;70255;53.686;10.778;2023-06-22T03:23:53;4.00;;;2.40;;
80842;SDS011;70255;53.686;10.778;2023-06-22T03:26:19;4.13;;;2.17;;
80842;SDS011;70255;53.686;10.778;2023-06-22T03:28:44;3.55;;;2.05;;
80842;SDS011;70255;53.686;10.778;2023-06-22T03:31:10;4.40;;;2.47;;
80842;SDS011;70255;53.686;10.778;2023-06-22T03:33:35;6.78;;;2.50;;
80842;SDS011;70255;53.686;10.778;2023-06-22T03:36:00;5.80;;;2.43;;
80842;SDS011;70255;53.686;10.778;2023-06-22T03:38:25;6.97;;;2.60;;
80842;SDS011;70255;53.686;10.778;2023-06-22T03:40:51;4.73;;;1.93;;
80842;SDS011;70255;53.686;10.778;2023-06-22T03:43:16;4.93;;;2.20;;
80842;SDS011;70255;53.686;10.778;2023-06-22T03:45:41;5.47;;;2.30;;
80842;SDS011;70255;53.686;10.778;2023-06-22T03:48:06;4.50;;;2.03;;
80842;SDS011;70255;53.686;10.778;2023-06-22T03:50:32;6.37;;;2.53;;
80842;SDS011;70255;53.686;10.778;2023-06-22T03:52:57;4.75;;;2.35;;
80842;SDS011;70255;53.686;10.778;2023-06-22T03:55:22;4.50;;;2.08;;
80842;SDS011;70255;53.686;10.778;2023-06-22T03:57:47;3.43;;;1.70;;
80842;SDS011;70255;53.686;10.778;2023-06-22T04:00:13;7.70;;;3.00;;
80842;SDS011;70255;53.686;10.778;2023-06-22T04:02:38;6.85;;;2.65;;
80842;SDS011;70255;53.686;10.778;2023-06-22T04:05:04;8.50;;;2.40;;
80842;SDS011;70255;53.686;10.778;2023-06-22T04:07:29;4.20;;;2.55;;
80842;SDS011;70255;53.686;10.778;2023-06-22T04:09:54;4.20;;;2.50;;
80842;SDS011;70255;53.686;10.778;2023-06-22T04:12:20;4.00;;;2.50;;
80842;SDS011;70255;53.686;10.778;2023-06-22T04:14:45;5.00;;;2.10;;
80842;SDS011;70255;53.686;10.778;2023-06-22T04:17:10;5.20;;;2.90;;
80842;SDS011;70255;53.686;10.778;2023-06-22T04:19:40;6.50;;;2.78;;
80842;SDS011;70255;53.686;10.778;2023-06-22T04:22:05;5.93;;;2.38;;
80842;SDS011;70255;53.686;10.778;2023-06-22T04:24:32;6.63;;;3.00;;
80842;SDS011;70255;53.686;10.778;2023-06-22T04:26:57;4.25;;;2.60;;
80842;SDS011;70255;53.686;10.778;2023-06-22T04:29:25;6.93;;;3.10;;
80842;SDS011;70255;53.686;10.778;2023-06-22T04:31:53;5.75;;;3.13;;
80842;SDS011;70255;53.686;10.778;2023-06-22T04:34:21;4.15;;;2.20;;
80842;SDS011;70255;53.686;10.778;2023-06-22T04:36:46;4.88;;;2.65;;
80842;SDS011;70255;53.686;10.778;2023-06-22T04:39:11;6.30;;;3.53;;
80842;SDS011;70255;53.686;10.778;2023-06-22T04:41:37;6.83;;;2.30;;
80842;SDS011;70255;53.686;10.778;2023-06-22T04:44:11;7.32;;;3.03;;
80842;SDS011;70255;53.686;10.778;2023-06-22T04:46:37;5.60;;;2.75;;
80842;SDS011;70255;53.686;10.778;2023-06-22T04:49:06;4.35;;;2.80;;
80842;SDS011;70255;53.686;10.778;2023-06-22T04:51:34;3.88;;;2.42;;
80842;SDS011;70255;53.686;10.778;2023-06-22T04:53:59;4.03;;;2.57;;
80842;SDS011;70255;53.686;10.778;2023-06-22T04:56:25;6.13;;;3.53;;
80842;SDS011;70255;53.686;10.778;2023-06-22T04:58:53;6.20;;;3.80;;
80842;SDS011;70255;53.686;10.778;2023-06-22T05:01:20;5.80;;;3.60;;
80842;SDS011;70255;53.686;10.778;2023-06-22T05:03:47;5.53;;;3.30;;
80842;SDS011;70255;53.686;10.778;2023-06-22T05:06:13;6.07;;;3.00;;
80842;SDS011;70255;53.686;10.778;2023-06-22T05:08:39;6.40;;;3.25;;
80842;SDS011;70255;53.686;10.778;2023-06-22T05:11:04;4.53;;;2.83;;
80842;SDS011;70255;53.686;10.778;2023-06-22T05:13:30;5.68;;;2.95;;
80842;SDS011;70255;53.686;10.778;2023-06-22T05:15:55;5.72;;;2.85;;
80842;SDS011;70255;53.686;10.778;2023-06-22T05:18:26;4.72;;;2.80;;
80842;SDS011;70255;53.686;10.778;2023-06-22T05:20:51;5.50;;;3.55;;
80842;SDS011;70255;53.686;10.778;2023-06-22T05:23:17;6.80;;;3.53;;
80842;SDS011;70255;53.686;10.778;2023-06-22T05:25:42;6.60;;;3.33;;
80842;SDS011;70255;53.686;10.778;2023-06-22T05:28:07;3.93;;;2.53;;
80842;SDS011;70255;53.686;10.778;2023-06-22T05:30:36;8.35;;;3.63;;
80842;SDS011;70255;53.686;10.778;2023-06-22T05:33:01;10.93;;;5.05;;
80842;SDS011;70255;53.686;10.778;2023-06-22T05:35:26;8.65;;;3.38;;
80842;SDS011;70255;53.686;10.778;2023-06-22T05:37:52;6.60;;;3.23;;
80842;SDS011;70255;53.686;10.778;2023-06-22T05:40:17;5.73;;;3.10;;
80842;SDS011;70255;53.686;10.778;2023-06-22T05:42:42;7.03;;;3.30;;
80842;SDS011;70255;53.686;10.778;2023-06-22T05:45:07;7.03;;;3.38;;
80842;SDS011;70255;53.686;10.778;2023-06-22T05:47:33;5.20;;;3.38;;
80842;SDS011;70255;53.686;10.778;2023-06-22T05:49:58;6.20;;;3.20;;
80842;SDS011;70255;53.686;10.778;2023-06-22T05:52:23;6.20;;;2.95;;
80842;SDS011;70255;53.686;10.778;2023-06-22T05:54:48;5.43;;;2.80;;
80842;SDS011;70255;53.686;10.778;2023-06-22T05:57:14;5.17;;;3.40;;
80842;SDS011;70255;53.686;10.778;2023-06-22T05:59:39;6.10;;;3.13;;
80842;SDS011;70255;53.686;10.778;2023-06-22T06:02:05;6.80;;;3.47;;
80842;SDS011;70255;53.686;10.778;2023-06-22T06:04:30;5.57;;;3.10;;
80842;SDS011;70255;53.686;10.778;2023-06-22T06:06:55;6.77;;;3.33;;
80842;SDS011;70255;53.686;10.778;2023-06-22T06:09:20;5.40;;;2.70;;
80842;SDS011;70255;53.686;10.778;2023-06-22T06:11:46;4.50;;;2.10;;
80842;SDS011;70255;53.686;10.778;2023-06-22T06:14:11;5.53;;;2.97;;
80842;SDS011;70255;53.686;10.778;2023-06-22T06:16:36;5.20;;;2.27;;
80842;SDS011;70255;53.686;10.778;2023-06-22T06:19:01;5.53;;;2.40;;
80842;SDS011;70255;53.686;10.778;2023-06-22T06:21:27;6.65;;;2.35;;
80842;SDS011;70255;53.686;10.778;2023-06-22T06:23:52;4.83;;;3.23;;
80842;SDS011;70255;53.686;10.778;2023-06-22T06:26:18;4.68;;;3.00;;
80842;SDS011;70255;53.686;10.778;2023-06-22T06:28:48;6.25;;;3.13;;
80842;SDS011;70255;53.686;10.778;2023-06-22T06:31:13;4.60;;;2.50;;
80842;SDS011;70255;53.686;10.778;2023-06-22T06:33:42;5.35;;;1.92;;
80842;SDS011;70255;53.686;10.778;2023-06-22T06:36:07;3.47;;;1.98;;
80842;SDS011;70255;53.686;10.778;2023-06-22T06:38:33;7.10;;;2.78;;
80842;SDS011;70255;53.686;10.778;2023-06-22T06:40:58;5.30;;;2.10;;
80842;SDS011;70255;53.686;10.778;2023-06-22T06:43:24;4.75;;;2.28;;
80842;SDS011;70255;53.686;10.778;2023-06-22T06:45:49;4.35;;;1.90;;
80842;SDS011;70255;53.686;10.778;2023-06-22T06:48:15;7.67;;;1.90;;
80842;SDS011;70255;53.686;10.778;2023-06-22T06:50:40;3.47;;;1.83;;
80842;SDS011;70255;53.686;10.778;2023-06-22T06:53:05;3.90;;;1.87;;
80842;SDS011;70255;53.686;10.778;2023-06-22T06:55:31;3.65;;;1.77;;
80842;SDS011;70255;53.686;10.778;2023-06-22T06:57:57;3.70;;;1.80;;
80842;SDS011;70255;53.686;10.778;2023-06-22T07:00:24;4.10;;;1.60;;
80842;SDS011;70255;53.686;10.778;2023-06-22T07:02:50;3.38;;;1.90;;
80842;SDS011;70255;53.686;10.778;2023-06-22T07:05:15;5.53;;;2.20;;
80842;SDS011;70255;53.686;10.778;2023-06-22T07:07:40;3.13;;;1.73;;
80842;SDS011;70255;53.686;10.778;2023-06-22T07:10:06;4.13;;;1.75;;
80842;SDS011;70255;53.686;10.778;2023-06-22T07:12:32;5.50;;;1.90;;
80842;SDS011;70255;53.686;10.778;2023-06-22T07:15:01;4.63;;;2.10;;
80842;SDS011;70255;53.686;10.778;2023-06-22T07:17:27;6.05;;;2.17;;
80842;SDS011;70255;53.686;10.778;2023-06-22T07:19:52;3.37;;;1.90;;
80842;SDS011;70255;53.686;10.778;2023-06-22T07:22:17;6.50;;;2.10;;
80842;SDS011;70255;53.686;10.778;2023-06-22T07:24:42;4.67;;;1.90;;
80842;SDS011;70255;53.686;10.778;2023-06-22T07:27:08;2.97;;;1.70;;
80842;SDS011;70255;53.686;10.778;2023-06-22T07:29:36;4.32;;;1.88;;
80842;SDS011;70255;53.686;10.778;2023-06-22T07:32:01;7.93;;;2.30;;
80842;SDS011;70255;53.686;10.778;2023-06-22T07:34:29;3.40;;;1.90;;
80842;SDS011;70255;53.686;10.778;2023-06-22T07:36:54;5.80;;;2.53;;
80842;SDS011;70255;53.686;10.778;2023-06-22T07:39:20;3.37;;;1.90;;
80842;SDS011;70255;53.686;10.778;2023-06-22T07:41:50;2.88;;;1.48;;
80842;SDS011;70255;53.686;10.778;2023-06-22T07:44:15;4.50;;;1.95;;
80842;SDS011;70255;53.686;10.778;2023-06-22T07:46:41;3.97;;;2.30;;
80842;SDS011;70255;53.686;10.778;2023-06-22T07:49:06;4.33;;;2.10;;
80842;SDS011;70255;53.686;10.778;2023-06-22T07:51:33;6.18;;;2.20;;
80842;SDS011;70255;53.686;10.778;2023-06-22T07:53:58;4.45;;;2.10;;
80842;SDS011;70255;53.686;10.778;2023-06-22T07:56:23;2.83;;;1.65;;
80842;SDS011;70255;53.686;10.778;2023-06-22T07:58:49;4.20;;;2.20;;
80842;SDS011;70255;53.686;10.778;2023-06-22T08:01:14;3.77;;;1.97;;
80842;SDS011;70255;53.686;10.778;2023-06-22T08:03:40;3.95;;;2.35;;
80842;SDS011;70255;53.686;10.778;2023-06-22T08:06:05;5.47;;;2.10;;
80842;SDS011;70255;53.686;10.778;2023-06-22T08:08:31;3.13;;;1.83;;
80842;SDS011;70255;53.686;10.778;2023-06-22T08:10:56;4.00;;;2.00;;
80842;SDS011;70255;53.686;10.778;2023-06-22T08:13:21;3.47;;;2.17;;
80842;SDS011;70255;53.686;10.778;2023-06-22T08:15:46;4.82;;;2.15;;
80842;SDS011;70255;53.686;10.778;2023-06-22T08:18:12;3.78;;;1.70;;
80842;SDS011;70255;53.686;10.778;2023-06-22T08:20:37;3.43;;;1.60;;
80842;SDS011;70255;53.686;10.778;2023-06-22T08:23:02;3.93;;;2.00;;
80842;SDS011;70255;53.686;10.778;2023-06-22T08:25:32;3.00;;;1.80;;
80842;SDS011;70255;53.686;10.778;2023-06-22T08:27:57;3.00;;;1.70;;
80842;SDS011;70255;53.686;10.778;2023-06-22T08:30:22;3.60;;;1.73;;
80842;SDS011;70255;53.686;10.778;2023-06-22T08:32:48;3.60;;;1.80;;
80842;SDS011;70255;53.686;10.778;2023-06-22T08:35:13;4.70;;;2.00;;
80842;SDS011;70255;53.686;10.778;2023-06-22T08:37:38;3.40;;;1.60;;
80842;SDS011;70255;53.686;10.778;2023-06-22T08:40:05;3.72;;;1.73;;
80842;SDS011;70255;53.686;10.778;2023-06-22T08:42:31;3.30;;;1.52;;
80842;SDS011;70255;53.686;10.778;2023-06-22T08:44:56;3.30;;;1.77;;
80842;SDS011;70255;53.686;10.778;2023-06-22T08:47:22;3.65;;;1.35;;
80842;SDS011;70255;53.686;10.778;2023-06-22T08:49:47;2.70;;;1.58;;
80842;SDS011;70255;53.686;10.778;2023-06-22T08:52:13;3.08;;;1.60;;
80842;SDS011;70255;53.686;10.778;2023-06-22T08:54:38;3.97;;;1.53;;
80842;SDS011;70255;53.686;10.778;2023-06-22T08:57:03;3.10;;;1.70;;
80842;SDS011;70255;53.686;10.778;2023-06-22T08:59:29;3.20;;;1.98;;
80842;SDS011;70255;53.686;10.778;2023-06-22T09:01:54;4.78;;;1.75;;
80842;SDS011;70255;53.686;10.778;2023-06-22T09:04:19;3.50;;;1.73;;
80842;SDS011;70255;53.686;10.778;2023-06-22T09:06:47;3.15;;;1.83;;
80842;SDS011;70255;53.686;10.778;2023-06-22T09:09:12;6.90;;;2.40;;
80842;SDS011;70255;53.686;10.778;2023-06-22T09:11:38;5.25;;;2.00;;
80842;SDS011;70255;53.686;10.778;2023-06-22T09:14:03;3.57;;;2.10;;
80842;SDS011;70255;53.686;10.778;2023-06-22T09:16:29;4.28;;;2.40;;
80842;SDS011;70255;53.686;10.778;2023-06-22T09:18:55;4.57;;;2.38;;
80842;SDS011;70255;53.686;10.778;2023-06-22T09:21:20;4.30;;;2.10;;
80842;SDS011;70255;53.686;10.778;2023-06-22T09:23:45;3.83;;;2.20;;
80842;SDS011;70255;53.686;10.778;2023-06-22T09:26:15;5.13;;;2.50;;
80842;SDS011;70255;53.686;10.778;2023-06-22T09:28:40;3.40;;;2.00;;
80842;SDS011;70255;53.686;10.778;2023-06-22T09:31:05;3.77;;;2.10;;
80842;SDS011;70255;53.686;10.778;2023-06-22T09:33:31;6.15;;;2.30;;
80842;SDS011;70255;53.686;10.778;2023-06-22T09:35:57;3.90;;;2.20;;
80842;SDS011;70255;53.686;10.778;2023-06-22T09:38:22;3.67;;;2.10;;
80842;SDS011;70255;53.686;10.778;2023-06-22T09:40:47;4.13;;;1.70;;
80842;SDS011;70255;53.686;10.778;2023-06-22T09:43:12;3.53;;;1.90;;
80842;SDS011;70255;53.686;10.778;2023-06-22T09:45:37;4.17;;;2.00;;
80842;SDS011;70255;53.686;10.778;2023-06-22T09:48:03;3.60;;;1.97;;
80842;SDS011;70255;53.686;10.778;2023-06-22T09:50:28;2.90;;;1.57;;
80842;SDS011;70255;53.686;10.778;2023-06-22T09:52:53;4.37;;;1.80;;
80842;SDS011;70255;53.686;10.778;2023-06-22T09:55:22;4.43;;;1.80;;
80842;SDS011;70255;53.686;10.778;2023-06-22T09:57:48;3.55;;;1.80;;
80842;SDS011;70255;53.686;10.778;2023-06-22T10:00:13;3.53;;;1.80;;
80842;SDS011;70255;53.686;10.778;2023-06-22T10:02:41;3.78;;;1.95;;
80842;SDS011;70255;53.686;10.778;2023-06-22T10:05:06;3.28;;;1.73;;
80842;SDS011;70255;53.686;10.778;2023-06-22T10:07:32;4.80;;;2.03;;
80842;SDS011;70255;53.686;10.778;2023-06-22T10:09:57;2.97;;;1.70;;
80842;SDS011;70255;53.686;10.778;2023-06-22T10:12:23;4.83;;;1.97;;
80842;SDS011;70255;53.686;10.778;2023-06-22T10:14:48;4.27;;;1.70;;
80842;SDS011;70255;53.686;10.778;2023-06-22T10:17:13;3.53;;;1.80;;
80842;SDS011;70255;53.686;10.778;2023-06-22T10:19:38;3.63;;;1.90;;
80842;SDS011;70255;53.686;10.778;2023-06-22T10:22:06;5.03;;;2.08;;
80842;SDS011;70255;53.686;10.778;2023-06-22T10:24:31;3.37;;;1.93;;
80842;SDS011;70255;53.686;10.778;2023-06-22T10:26:56;3.47;;;2.00;;
80842;SDS011;70255;53.686;10.778;2023-06-22T10:29:21;3.07;;;1.87;;
80842;SDS011;70255;53.686;10.778;2023-06-22T10:31:47;4.57;;;1.90;;
80842;SDS011;70255;53.686;10.778;2023-06-22T10:34:12;4.43;;;1.83;;
80842;SDS011;70255;53.686;10.778;2023-06-22T10:36:38;4.07;;;2.00;;
80842;SDS011;70255;53.686;10.778;2023-06-22T10:39:03;3.33;;;2.00;;
80842;SDS011;70255;53.686;10.778;2023-06-22T10:41:28;4.07;;;1.77;;
80842;SDS011;70255;53.686;10.778;2023-06-22T10:43:55;4.70;;;2.25;;
80842;SDS011;70255;53.686;10.778;2023-06-22T10:46:20;4.47;;;2.20;;
80842;SDS011;70255;53.686;10.778;2023-06-22T10:48:45;4.17;;;2.43;;
80842;SDS011;70255;53.686;10.778;2023-06-22T10:51:11;5.53;;;2.37;;
80842;SDS011;70255;53.686;10.778;2023-06-22T10:53:36;5.77;;;2.23;;
80842;SDS011;70255;53.686;10.778;2023-06-22T10:56:01;2.70;;;1.80;;
80842;SDS011;70255;53.686;10.778;2023-06-22T10:58:26;3.27;;;1.80;;
80842;SDS011;70255;53.686;10.778;2023-06-22T11:00:52;3.23;;;2.03;;
80842;SDS011;70255;53.686;10.778;2023-06-22T11:03:17;3.70;;;2.53;;
80842;SDS011;70255;53.686;10.778;2023-06-22T11:05:42;3.10;;;2.00;;
80842;SDS011;70255;53.686;10.778;2023-06-22T11:08:07;4.10;;;2.20;;
80842;SDS011;70255;53.686;10.778;2023-06-22T11:10:32;4.27;;;2.20;;
80842;SDS011;70255;53.686;10.778;2023-06-22T11:12:58;3.22;;;2.40;;
80842;SDS011;70255;53.686;10.778;2023-06-22T11:15:24;4.57;;;2.20;;
80842;SDS011;70255;53.686;10.778;2023-06-22T11:17:49;3.65;;;2.28;;
80842;SDS011;70255;53.686;10.778;2023-06-22T11:20:14;3.53;;;2.20;;
80842;SDS011;70255;53.686;10.778;2023-06-22T11:22:39;3.60;;;2.20;;
80842;SDS011;70255;53.686;10.778;2023-06-22T11:25:05;3.90;;;2.00;;
80842;SDS011;70255;53.686;10.778;2023-06-22T11:27:31;4.35;;;2.40;;
80842;SDS011;70255;53.686;10.778;2023-06-22T11:29:56;4.30;;;2.90;;
80842;SDS011;70255;53.686;10.778;2023-06-22T11:32:22;4.45;;;2.83;;
80842;SDS011;70255;53.686;10.778;2023-06-22T11:34:47;4.78;;;2.50;;
80842;SDS011;70255;53.686;10.778;2023-06-22T11:37:12;5.03;;;2.40;;
80842;SDS011;70255;53.686;10.778;2023-06-22T11:39:38;4.40;;;2.38;;
80842;SDS011;70255;53.686;10.778;2023-06-22T11:42:03;5.43;;;2.20;;
80842;SDS011;70255;53.686;10.778;2023-06-22T11:44:28;5.72;;;2.70;;
80842;SDS011;70255;53.686;10.778;2023-06-22T11:46:53;5.50;;;2.37;;
80842;SDS011;70255;53.686;10.778;2023-06-22T11:49:19;4.03;;;2.20;;
80842;SDS011;70255;53.686;10.778;2023-06-22T11:51:45;4.05;;;2.67;;
80842;SDS011;70255;53.686;10.778;2023-06-22T11:54:10;3.00;;;2.13;;
80842;SDS011;70255;53.686;10.778;2023-06-22T11:56:35;4.70;;;2.47;;
80842;SDS011;70255;53.686;10.778;2023-06-22T11:59:01;4.40;;;3.00;;
80842;SDS011;70255;53.686;10.778;2023-06-22T12:01:27;4.05;;;2.63;;
80842;SDS011;70255;53.686;10.778;2023-06-22T12:03:52;3.67;;;2.45;;
80842;SDS011;70255;53.686;10.778;2023-06-22T12:06:17;6.23;;;2.90;;
80842;SDS011;70255;53.686;10.778;2023-06-22T12:08:42;4.23;;;2.57;;
80842;SDS011;70255;53.686;10.778;2023-06-22T12:11:08;5.70;;;2.63;;
80842;SDS011;70255;53.686;10.778;2023-06-22T12:13:33;4.27;;;2.90;;
80842;SDS011;70255;53.686;10.778;2023-06-22T12:15:58;4.03;;;2.70;;
80842;SDS011;70255;53.686;10.778;2023-06-22T12:18:23;4.30;;;3.13;;
80842;SDS011;70255;53.686;10.778;2023-06-22T12:20:49;5.25;;;2.75;;
80842;SDS011;70255;53.686;10.778;2023-06-22T12:23:14;3.92;;;2.50;;
80842;SDS011;70255;53.686;10.778;2023-06-22T12:25:39;4.18;;;2.80;;
80842;SDS011;70255;53.686;10.778;2023-06-22T12:28:05;4.33;;;2.80;;
80842;SDS011;70255;53.686;10.778;2023-06-22T12:30:32;3.67;;;2.87;;
80842;SDS011;70255;53.686;10.778;2023-06-22T12:32:57;4.05;;;2.40;;
80842;SDS011;70255;53.686;10.778;2023-06-22T12:35:23;4.47;;;2.70;;
80842;SDS011;70255;53.686;10.778;2023-06-22T12:37:48;5.43;;;2.97;;
80842;SDS011;70255;53.686;10.778;2023-06-22T12:40:13;3.60;;;2.70;;
80842;SDS011;70255;53.686;10.778;2023-06-22T12:42:39;4.27;;;2.60;;
80842;SDS011;70255;53.686;10.778;2023-06-22T12:45:05;3.95;;;2.55;;
80842;SDS011;70255;53.686;10.778;2023-06-22T12:47:30;3.83;;;3.05;;
80842;SDS011;70255;53.686;10.778;2023-06-22T12:49:55;5.18;;;2.92;;
80842;SDS011;70255;53.686;10.778;2023-06-22T12:52:21;5.38;;;3.10;;
80842;SDS011;70255;53.686;10.778;2023-06-22T12:54:46;4.53;;;2.47;;
80842;SDS011;70255;53.686;10.778;2023-06-22T12:57:11;5.30;;;2.73;;
80842;SDS011;70255;53.686;10.778;2023-06-22T12:59:37;4.47;;;3.10;;
80842;SDS011;70255;53.686;10.778;2023-06-22T13:02:02;4.43;;;3.17;;
80842;SDS011;70255;53.686;10.778;2023-06-22T13:04:27;4.97;;;2.80;;
80842;SDS011;70255;53.686;10.778;2023-06-22T13:06:52;4.60;;;3.07;;
80842;SDS011;70255;53.686;10.778;2023-06-22T13:09:18;4.57;;;2.60;;
80842;SDS011;70255;53.686;10.778;2023-06-22T13:11:43;7.80;;;3.67;;
80842;SDS011;70255;53.686;10.778;2023-06-22T13:14:09;5.53;;;3.40;;
80842;SDS011;70255;53.686;10.778;2023-06-22T13:16:34;4.18;;;3.33;;
80842;SDS011;70255;53.686;10.778;2023-06-22T13:18:59;4.57;;;2.80;;
80842;SDS011;70255;53.686;10.778;2023-06-22T13:21:24;4.07;;;2.43;;
80842;SDS011;70255;53.686;10.778;2023-06-22T13:23:50;5.03;;;3.70;;
80842;SDS011;70255;53.686;10.778;2023-06-22T13:26:15;5.97;;;3.20;;
80842;SDS011;70255;53.686;10.778;2023-06-22T13:28:40;4.40;;;3.30;;
80842;SDS011;70255;53.686;10.778;2023-06-22T13:31:05;4.03;;;2.97;;
80842;SDS011;70255;53.686;10.778;2023-06-22T13:33:31;6.13;;;3.30;;
80842;SDS011;70255;53.686;10.778;2023-06-22T13:35:56;4.53;;;3.37;;
80842;SDS011;70255;53.686;10.778;2023-06-22T13:38:21;5.17;;;3.10;;
80842;SDS011;70255;53.686;10.778;2023-06-22T13:40:47;3.85;;;3.17;;
80842;SDS011;70255;53.686;10.778;2023-06-22T13:43:12;6.18;;;2.80;;
80842;SDS011;70255;53.686;10.778;2023-06-22T13:45:38;4.63;;;3.20;;
80842;SDS011;70255;53.686;10.778;2023-06-22T13:48:03;7.50;;;3.00;;
80842;SDS011;70255;53.686;10.778;2023-06-22T13:50:28;4.43;;;3.20;;
80842;SDS011;70255;53.686;10.778;2023-06-22T13:52:54;4.65;;;3.42;;
80842;SDS011;70255;53.686;10.778;2023-06-22T13:55:20;5.97;;;3.27;;
80842;SDS011;70255;53.686;10.778;2023-06-22T13:57:46;5.18;;;3.25;;
80842;SDS011;70255;53.686;10.778;2023-06-22T14:00:11;4.07;;;3.10;;
80842;SDS011;70255;53.686;10.778;2023-06-22T14:02:37;4.47;;;3.03;;
80842;SDS011;70255;53.686;10.778;2023-06-22T14:05:03;4.00;;;2.83;;
80842;SDS011;70255;53.686;10.778;2023-06-22T14:07:28;5.43;;;3.17;;
80842;SDS011;70255;53.686;10.778;2023-06-22T14:09:53;4.53;;;3.07;;
80842;SDS011;70255;53.686;10.778;2023-06-22T14:12:18;4.57;;;3.27;;
80842;SDS011;70255;53.686;10.778;2023-06-22T14:14:44;4.00;;;3.22;;
80842;SDS011;70255;53.686;10.778;2023-06-22T14:17:09;5.47;;;3.57;;
80842;SDS011;70255;53.686;10.778;2023-06-22T14:19:35;4.68;;;3.17;;
80842;SDS011;70255;53.686;10.778;2023-06-22T14:22:00;5.07;;;3.17;;
80842;SDS011;70255;53.686;10.778;2023-06-22T14:24:25;4.57;;;3.20;;
80842;SDS011;70255;53.686;10.778;2023-06-22T14:26:51;4.40;;;3.00;;
80842;SDS011;70255;53.686;10.778;2023-06-22T14:29:16;5.33;;;2.93;;